Terminal Aerodrome Forecast
Issued by NWS Wilmington, OH

Current Version | Previous Version | Graphics & Text | Print | Product List | Glossary On
Versions: 1 2 3 4 5 6 7 8 9 10 11 12 13 14 15 16 17
000
FTUS41 KILN 191136
TAFILN
TAF
KILN 191136Z 1912/2012 28006KT P6SM SCT050
     FM200000 VRB03KT P6SM SCT150
     FM200800 VRB03KT 4SM BR SCT150=

USA.gov is the U.S. government's official web portal to all federal, state and local government web resources and services.